createdAt,value
2022-08-05T00:00:23.205Z,23.84
2022-08-05T00:01:27.779Z,23.82
2022-08-05T00:02:23.262Z,23.79
2022-08-05T00:03:23.182Z,23.76
2022-08-05T00:04:23.170Z,23.75
2022-08-05T00:06:02.064Z,23.73
2022-08-05T00:06:30.761Z,23.70
2022-08-05T00:07:59.451Z,23.65
2022-08-05T00:08:34.823Z,23.60
2022-08-05T00:09:23.083Z,23.57
2022-08-05T00:10:27.247Z,23.53
2022-08-05T00:11:28.040Z,23.51
2022-08-05T00:12:23.049Z,23.49
2022-08-05T00:13:38.082Z,23.49
2022-08-05T00:14:27.505Z,23.50
2022-08-05T00:15:55.201Z,23.51
2022-08-05T00:16:35.909Z,23.54
2022-08-05T00:17:22.992Z,23.55
2022-08-05T00:18:22.987Z,23.55
2022-08-05T00:19:24.647Z,23.53
2022-08-05T00:20:22.932Z,23.48
2022-08-05T00:21:22.942Z,23.43
2022-08-05T00:22:22.967Z,23.38
2022-08-05T00:23:44.777Z,23.37
2022-08-05T00:24:24.822Z,23.37
2022-08-05T00:25:22.866Z,23.34
2022-08-05T00:26:22.892Z,23.29
2022-08-05T00:27:25.807Z,23.26
2022-08-05T00:28:29.675Z,23.25
2022-08-05T00:29:25.505Z,23.26
2022-08-05T00:30:29.060Z,23.26
2022-08-05T00:31:54.265Z,23.24
2022-08-05T00:32:22.798Z,23.22
2022-08-05T00:34:54.550Z,23.18
2022-08-05T00:35:09.530Z,23.14
2022-08-05T00:35:22.723Z,23.10
2022-08-05T00:37:11.496Z,23.04
2022-08-05T00:37:22.717Z,22.98
2022-08-05T00:38:28.758Z,22.95
2022-08-05T00:39:22.748Z,22.93
2022-08-05T00:40:27.236Z,22.89
2022-08-05T00:41:22.682Z,22.85
2022-08-05T00:42:32.095Z,22.80
2022-08-05T00:43:22.692Z,22.73
2022-08-05T00:44:23.215Z,22.64
2022-08-05T00:45:27.992Z,22.53
2022-08-05T00:46:42.535Z,22.42
2022-08-05T00:47:22.662Z,22.34
2022-08-05T00:48:27.482Z,22.27
2022-08-05T00:49:22.550Z,22.22
2022-08-05T00:50:25.101Z,22.16
2022-08-05T00:51:51.515Z,22.09
2022-08-05T00:52:28.611Z,22.02
2022-08-05T00:53:45.227Z,21.95
2022-08-05T00:54:22.504Z,21.86
2022-08-05T00:55:22.480Z,21.77
2022-08-05T00:56:22.979Z,21.69
2022-08-05T00:57:22.948Z,21.61
2022-08-05T00:58:27.529Z,21.54
2022-08-05T00:59:22.430Z,21.48
2022-08-05T01:00:22.413Z,21.41
2022-08-05T01:01:43.008Z,21.35
2022-08-05T01:02:22.376Z,21.29
2022-08-05T01:03:23.450Z,21.24
2022-08-05T01:04:29.680Z,21.19
2022-08-05T01:05:22.339Z,21.16
2022-08-05T01:06:22.326Z,21.14
2022-08-05T01:07:22.312Z,21.13
2022-08-05T01:08:30.251Z,21.13
2022-08-05T01:09:22.309Z,21.14
2022-08-05T01:10:22.276Z,21.14
2022-08-05T01:11:33.540Z,21.14
2022-08-05T01:12:22.301Z,21.13
2022-08-05T01:13:27.346Z,21.11
2022-08-05T01:14:27.776Z,21.08
2022-08-05T01:15:36.213Z,21.04
2022-08-05T01:16:26.293Z,21.02
2022-08-05T01:17:22.438Z,21.03
2022-08-05T01:18:22.177Z,21.03
2022-08-05T01:19:22.283Z,21.02
2022-08-05T01:20:22.295Z,21.03
2022-08-05T01:21:23.018Z,21.04
2022-08-05T01:22:23.977Z,21.08
2022-08-05T01:23:23.487Z,21.15
2022-08-05T01:24:22.163Z,21.22
2022-08-05T01:25:22.101Z,21.25
2022-08-05T01:26:22.101Z,21.27
2022-08-05T01:27:22.268Z,21.28
2022-08-05T01:28:22.076Z,21.28
2022-08-05T01:29:23.214Z,21.30
2022-08-05T01:30:34.716Z,21.32
2022-08-05T01:31:22.004Z,21.32
2022-08-05T01:32:22.013Z,21.31
2022-08-05T01:33:21.964Z,21.27
2022-08-05T01:34:21.973Z,21.23
2022-08-05T01:35:50.780Z,21.18
2022-08-05T01:36:28.183Z,21.13
2022-08-05T01:37:25.150Z,21.07
2022-08-05T01:38:24.649Z,21.00
2022-08-05T01:39:45.866Z,20.93
2022-08-05T01:40:21.924Z,20.85
2022-08-05T01:41:22.057Z,20.76
2022-08-05T01:42:21.859Z,20.68
2022-08-05T01:43:21.980Z,20.60
2022-08-05T01:44:21.869Z,20.54
2022-08-05T01:45:21.823Z,20.51
2022-08-05T01:46:43.184Z,20.49
2022-08-05T01:47:22.123Z,20.47
2022-08-05T01:48:21.780Z,20.45
2022-08-05T01:49:23.918Z,20.42
2022-08-05T01:50:28.854Z,20.39
2022-08-05T01:51:21.756Z,20.37
2022-08-05T01:52:21.739Z,20.34
2022-08-05T01:53:57.886Z,20.31
2022-08-05T01:54:25.535Z,20.30
2022-08-05T01:55:21.682Z,20.32
2022-08-05T01:58:29.707Z,20.35
2022-08-05T01:58:45.760Z,20.36
2022-08-05T01:58:51.644Z,20.36
2022-08-05T01:59:51.190Z,20.35
2022-08-05T02:00:51.132Z,20.32
2022-08-05T02:01:51.180Z,20.28
2022-08-05T02:02:54.517Z,20.23
2022-08-05T02:03:51.106Z,20.17
2022-08-05T02:04:51.117Z,20.12
2022-08-05T02:05:51.073Z,20.08
2022-08-05T02:06:51.048Z,20.04
2022-08-05T02:07:57.897Z,20.00
2022-08-05T02:08:54.869Z,19.96
2022-08-05T02:09:51.152Z,19.94
2022-08-05T02:10:51.030Z,19.91
2022-08-05T02:11:52.489Z,19.89
2022-08-05T02:12:51.176Z,19.85
2022-08-05T02:13:53.749Z,19.81
2022-08-05T02:14:50.943Z,19.76
2022-08-05T02:15:50.918Z,19.72
2022-08-05T02:16:52.258Z,19.69
2022-08-05T02:18:31.604Z,19.66
2022-08-05T02:18:50.911Z,19.65
2022-08-05T02:19:50.936Z,19.64
2022-08-05T02:20:50.857Z,19.62
2022-08-05T02:21:50.863Z,19.59
2022-08-05T02:22:50.838Z,19.55
2022-08-05T02:23:50.828Z,19.50
2022-08-05T02:24:51.459Z,19.47
2022-08-05T02:25:50.805Z,19.47
2022-08-05T02:26:53.898Z,19.49
2022-08-05T02:27:59.698Z,19.52
2022-08-05T02:28:50.777Z,19.53
2022-08-05T02:29:59.038Z,19.52
2022-08-05T02:30:54.164Z,19.49
2022-08-05T02:31:50.727Z,19.46
2022-08-05T02:32:50.737Z,19.42
2022-08-05T02:33:57.325Z,19.39
2022-08-05T02:34:54.674Z,19.37
2022-08-05T02:35:58.944Z,19.35
2022-08-05T02:36:50.679Z,19.33
2022-08-05T02:37:53.985Z,19.31
2022-08-05T02:38:53.601Z,19.28
2022-08-05T02:39:51.688Z,19.24
2022-08-05T02:40:50.598Z,19.21
2022-08-05T02:42:00.614Z,19.18
2022-08-05T02:42:52.813Z,19.17
2022-08-05T02:44:06.431Z,19.18
2022-08-05T02:44:50.545Z,19.19
2022-08-05T02:45:52.239Z,19.21
2022-08-05T02:46:58.498Z,19.23
2022-08-05T02:48:06.901Z,19.23
2022-08-05T02:48:50.508Z,19.22
2022-08-05T02:49:50.482Z,19.20
2022-08-05T02:50:50.465Z,19.16
2022-08-05T02:52:04.088Z,19.12
2022-08-05T02:52:50.464Z,19.07
2022-08-05T02:53:50.430Z,19.04
2022-08-05T02:54:51.117Z,19.01
2022-08-05T02:55:54.671Z,18.99
2022-08-05T02:56:50.382Z,18.95
2022-08-05T02:58:10.735Z,18.91
2022-08-05T02:58:51.629Z,18.88
2022-08-05T02:59:52.064Z,18.86
2022-08-05T03:00:50.344Z,18.87
2022-08-05T03:01:50.377Z,18.91
2022-08-05T03:02:50.341Z,18.95
2022-08-05T03:04:02.821Z,18.97
2022-08-05T03:04:53.329Z,18.98
2022-08-05T03:06:55.756Z,18.98
2022-08-05T03:07:03.512Z,18.99
2022-08-05T03:08:07.357Z,19.00
2022-08-05T03:08:52.179Z,19.01
2022-08-05T03:09:51.966Z,19.01
2022-08-05T03:11:41.156Z,19.00
2022-08-05T03:11:58.674Z,18.98
2022-08-05T03:12:51.742Z,18.94
2022-08-05T03:13:51.731Z,18.90
2022-08-05T03:14:50.146Z,18.85
2022-08-05T03:15:50.147Z,18.81
2022-08-05T03:16:53.369Z,18.76
2022-08-05T03:17:50.120Z,18.73
2022-08-05T03:18:50.104Z,18.70
2022-08-05T03:19:50.090Z,18.68
2022-08-05T03:20:50.384Z,18.65
2022-08-05T03:21:50.164Z,18.62
2022-08-05T03:22:50.599Z,18.58
2022-08-05T03:23:50.027Z,18.56
2022-08-05T03:24:50.900Z,18.56
2022-08-05T03:26:04.761Z,18.58
2022-08-05T03:26:50.010Z,18.61
2022-08-05T03:27:59.253Z,18.66
2022-08-05T03:28:49.957Z,18.73
2022-08-05T03:30:08.264Z,18.83
2022-08-05T03:30:50.905Z,18.93
2022-08-05T03:31:57.107Z,19.03
2022-08-05T03:32:49.907Z,19.14
2022-08-05T03:33:52.750Z,19.25
2022-08-05T03:34:50.986Z,19.32
2022-08-05T03:35:49.992Z,19.36
2022-08-05T03:36:49.873Z,19.36
2022-08-05T03:37:49.880Z,19.34
2022-08-05T03:38:53.230Z,19.31
2022-08-05T03:39:59.487Z,19.29
2022-08-05T03:40:49.878Z,19.28
2022-08-05T03:41:49.810Z,19.29
2022-08-05T03:42:52.150Z,19.29
2022-08-05T03:44:08.597Z,19.28
2022-08-05T03:44:49.766Z,19.27
2022-08-05T03:45:57.910Z,19.26
2022-08-05T03:46:49.727Z,19.25
2022-08-05T03:47:49.748Z,19.23
2022-08-05T03:48:49.711Z,19.20
2022-08-05T03:49:51.870Z,19.19
2022-08-05T03:50:49.666Z,19.18
2022-08-05T03:52:48.289Z,19.17
2022-08-05T03:56:05.686Z,19.16
2022-08-05T03:56:27.903Z,19.17
2022-08-05T03:56:36.372Z,19.20
2022-08-05T03:57:29.085Z,19.23
2022-08-05T03:58:28.915Z,19.28
2022-08-05T03:59:25.826Z,19.36
2022-08-05T04:00:25.798Z,19.44
2022-08-05T04:01:25.862Z,19.53
2022-08-05T04:02:38.681Z,19.60
2022-08-05T04:03:28.864Z,19.66
2022-08-05T04:04:26.493Z,19.72
2022-08-05T04:05:25.756Z,19.78
2022-08-05T04:06:25.732Z,19.83
2022-08-05T04:07:25.887Z,19.87
2022-08-05T04:08:34.712Z,19.91
2022-08-05T04:09:26.114Z,19.95
2022-08-05T04:10:27.960Z,20.00
2022-08-05T04:11:25.667Z,20.07
2022-08-05T04:12:25.667Z,20.14
2022-08-05T04:13:25.652Z,20.21
2022-08-05T04:14:30.116Z,20.26
2022-08-05T04:15:25.613Z,20.32
2022-08-05T04:16:32.299Z,20.39
2022-08-05T04:17:25.946Z,20.45
2022-08-05T04:18:25.719Z,20.48
2022-08-05T04:19:25.573Z,20.50
2022-08-05T04:20:25.552Z,20.52
2022-08-05T04:22:09.084Z,20.55
2022-08-05T04:22:25.518Z,20.60
2022-08-05T04:24:01.091Z,20.66
2022-08-05T04:24:25.492Z,20.74
2022-08-05T04:25:56.948Z,20.80
2022-08-05T04:26:25.491Z,20.84
2022-08-05T04:27:33.122Z,20.87
2022-08-05T04:28:28.502Z,20.89
2022-08-05T04:29:27.180Z,20.90
2022-08-05T04:30:26.550Z,20.91
2022-08-05T04:31:27.715Z,20.92
2022-08-05T04:32:31.039Z,20.94
2022-08-05T04:33:54.875Z,20.95
2022-08-05T04:34:32.561Z,20.97
2022-08-05T04:35:25.349Z,20.99
2022-08-05T04:36:45.500Z,21.01
2022-08-05T04:38:02.932Z,21.04
2022-08-05T04:38:39.714Z,21.07
2022-08-05T04:39:25.364Z,21.10
2022-08-05T04:40:25.278Z,21.15
2022-08-05T04:41:34.159Z,21.21
2022-08-05T04:42:25.618Z,21.27
2022-08-05T04:43:26.046Z,21.34
2022-08-05T04:44:29.846Z,21.39
2022-08-05T04:45:30.989Z,21.43
2022-08-05T04:46:27.923Z,21.47
2022-08-05T04:47:25.528Z,21.50
2022-08-05T04:48:27.854Z,21.54
2022-08-05T04:49:38.689Z,21.57
2022-08-05T04:50:37.233Z,21.61
2022-08-05T04:51:25.138Z,21.65
2022-08-05T04:52:27.601Z,21.69
2022-08-05T04:53:25.129Z,21.72
2022-08-05T04:54:25.094Z,21.75
2022-08-05T04:56:00.106Z,21.78
2022-08-05T04:56:34.451Z,21.81
2022-08-05T04:57:28.365Z,21.85
2022-08-05T04:58:25.062Z,21.88
2022-08-05T04:59:38.546Z,21.91
2022-08-05T05:00:25.022Z,21.95
2022-08-05T05:02:06.139Z,21.99
2022-08-05T05:02:37.540Z,22.04
2022-08-05T05:03:24.991Z,22.10
2022-08-05T05:04:24.969Z,22.15
2022-08-05T05:05:28.868Z,22.21
2022-08-05T05:06:39.017Z,22.26
2022-08-05T05:07:29.769Z,22.31
2022-08-05T05:08:26.594Z,22.36
2022-08-05T05:09:24.934Z,22.41
2022-08-05T05:10:24.899Z,22.46
2022-08-05T05:11:24.868Z,22.51
2022-08-05T05:12:24.854Z,22.56
2022-08-05T05:13:24.840Z,22.61
2022-08-05T05:14:27.909Z,22.67
2022-08-05T05:15:57.291Z,22.72
2022-08-05T05:16:24.834Z,22.78
2022-08-05T05:17:55.949Z,22.82
2022-08-05T05:18:31.610Z,22.86
2022-08-05T05:19:26.589Z,22.89
2022-08-05T05:20:28.519Z,22.94
2022-08-05T05:21:27.200Z,22.98
2022-08-05T05:22:26.575Z,23.01
2022-08-05T05:23:24.735Z,23.03
2022-08-05T05:24:56.200Z,23.05
2022-08-05T05:25:32.547Z,23.07
2022-08-05T05:26:28.571Z,23.10
2022-08-05T05:27:24.951Z,23.13
2022-08-05T05:28:24.855Z,23.16
2022-08-05T05:29:24.656Z,23.19
2022-08-05T05:30:29.063Z,23.22
2022-08-05T05:31:24.642Z,23.25
2022-08-05T05:32:24.618Z,23.26
2022-08-05T05:33:24.609Z,23.28
2022-08-05T05:34:27.037Z,23.30
2022-08-05T05:35:24.557Z,23.30
2022-08-05T05:36:24.537Z,23.29
2022-08-05T05:37:37.327Z,23.28
2022-08-05T05:38:27.533Z,23.29
2022-08-05T05:39:24.584Z,23.31
2022-08-05T05:40:26.040Z,23.33
2022-08-05T05:41:24.501Z,23.36
2022-08-05T05:42:24.486Z,23.38
2022-08-05T05:43:56.382Z,23.40
2022-08-05T05:44:36.611Z,23.42
2022-08-05T05:45:24.673Z,23.44
2022-08-05T05:46:24.429Z,23.45
2022-08-05T05:47:30.199Z,23.46
2022-08-05T05:48:27.762Z,23.47
2022-08-05T05:49:24.393Z,23.48
2022-08-05T05:50:24.356Z,23.49
2022-08-05T05:51:24.349Z,23.51
2022-08-05T05:52:28.300Z,23.52
2022-08-05T05:53:24.338Z,23.54
2022-08-05T05:54:49.687Z,23.57
2022-08-05T05:55:24.326Z,23.61
2022-08-05T05:56:26.114Z,23.64
2022-08-05T05:57:24.444Z,23.67
2022-08-05T05:58:31.762Z,23.71
2022-08-05T05:59:24.252Z,23.73
2022-08-05T06:00:27.544Z,23.74
2022-08-05T06:01:24.229Z,23.75
2022-08-05T06:02:32.436Z,23.76
2022-08-05T06:03:40.039Z,23.78
2022-08-05T06:04:24.247Z,23.79
2022-08-05T06:05:24.201Z,23.78
2022-08-05T06:06:24.153Z,23.76
2022-08-05T06:07:24.414Z,23.74
2022-08-05T06:08:32.600Z,23.74
2022-08-05T06:09:27.475Z,23.74
2022-08-05T06:10:24.128Z,23.74
2022-08-05T06:11:24.157Z,23.75
2022-08-05T06:12:24.094Z,23.76
2022-08-05T06:13:24.069Z,23.79
2022-08-05T06:14:24.048Z,23.81
2022-08-05T06:15:24.506Z,23.83
2022-08-05T06:16:37.183Z,23.85
2022-08-05T06:17:24.627Z,23.88
2022-08-05T06:18:31.051Z,23.92
2022-08-05T06:19:34.009Z,23.97
2022-08-05T06:20:24.035Z,24.01
2022-08-05T06:21:24.030Z,24.04
2022-08-05T06:22:23.972Z,24.08
2022-08-05T06:23:23.939Z,24.13
2022-08-05T06:24:25.740Z,24.19
2022-08-05T06:25:59.302Z,24.26
2022-08-05T06:26:25.094Z,24.34
2022-08-05T06:28:11.815Z,24.40
2022-08-05T06:28:28.501Z,24.44
2022-08-05T06:29:48.864Z,24.48
2022-08-05T06:30:23.844Z,24.52
2022-08-05T06:31:30.480Z,24.58
2022-08-05T06:32:25.889Z,24.67
2022-08-05T06:34:00.484Z,24.76
2022-08-05T06:34:23.820Z,24.86
2022-08-05T06:36:03.485Z,24.92
2022-08-05T06:36:26.016Z,24.95
2022-08-05T06:37:55.817Z,24.93
2022-08-05T06:38:36.772Z,24.85
2022-08-05T06:39:24.685Z,24.77
2022-08-05T06:40:28.067Z,24.73
2022-08-05T06:41:23.727Z,24.75
2022-08-05T06:42:23.686Z,24.81
2022-08-05T06:43:57.743Z,24.89
2022-08-05T06:44:23.689Z,24.94
2022-08-05T06:46:02.915Z,24.97
2022-08-05T06:46:23.634Z,25.02
2022-08-05T06:48:11.634Z,25.08
2022-08-05T06:48:58.570Z,25.16
2022-08-05T06:50:01.864Z,25.16
2022-08-05T06:50:23.751Z,25.10
2022-08-05T06:51:29.296Z,25.04
2022-08-05T06:52:37.051Z,24.99
2022-08-05T06:53:28.565Z,24.95
2022-08-05T06:54:25.800Z,24.93
2022-08-05T06:55:23.507Z,24.93
2022-08-05T06:56:26.313Z,24.97
2022-08-05T06:57:57.427Z,24.98
2022-08-05T06:58:29.682Z,24.91
2022-08-05T06:59:23.497Z,24.84
2022-08-05T07:00:24.709Z,24.82
2022-08-05T07:01:23.546Z,24.86
2022-08-05T07:02:23.461Z,24.95
2022-08-05T07:03:32.310Z,25.02
2022-08-05T07:04:23.439Z,25.05
2022-08-05T07:05:37.198Z,25.14
2022-08-05T07:06:23.404Z,25.27
2022-08-05T07:07:35.496Z,25.40
2022-08-05T07:08:23.393Z,25.53
2022-08-05T07:09:24.899Z,25.58
2022-08-05T07:10:23.369Z,25.57
2022-08-05T07:11:25.510Z,25.54
2022-08-05T07:12:23.309Z,25.50
2022-08-05T07:13:37.228Z,25.51
2022-08-05T07:14:29.538Z,25.57
2022-08-05T07:15:34.324Z,25.66
2022-08-05T07:17:56.597Z,25.71
2022-08-05T07:18:08.445Z,25.70
2022-08-05T07:18:28.936Z,25.65
2022-08-05T07:20:10.508Z,25.59
2022-08-05T07:20:37.052Z,25.57
2022-08-05T07:21:25.897Z,25.59
2022-08-05T07:22:28.373Z,25.64
2022-08-05T07:23:26.227Z,25.70
2022-08-05T07:24:23.142Z,25.74
2022-08-05T07:25:55.217Z,25.76
2022-08-05T07:26:25.652Z,25.79
2022-08-05T07:27:23.289Z,25.81
2022-08-05T07:28:23.096Z,25.83
2022-08-05T07:30:22.305Z,25.89
2022-08-05T07:30:38.377Z,25.98
2022-08-05T07:31:40.636Z,26.07
2022-08-05T07:32:26.127Z,26.09
2022-08-05T07:33:36.834Z,26.05
2022-08-05T07:34:28.450Z,26.01
2022-08-05T07:36:01.625Z,25.99
2022-08-05T07:36:24.052Z,25.99
2022-08-05T07:37:23.316Z,26.00
2022-08-05T07:38:32.284Z,25.99
2022-08-05T07:39:24.807Z,26.01
2022-08-05T07:40:26.739Z,26.04
2022-08-05T07:42:08.364Z,26.04
2022-08-05T07:42:33.384Z,26.06
2022-08-05T07:43:22.929Z,26.09
2022-08-05T07:44:22.941Z,26.09
2022-08-05T07:45:56.608Z,26.08
2022-08-05T07:46:25.351Z,26.01
2022-08-05T07:47:23.091Z,25.94
2022-08-05T07:49:01.013Z,25.88
2022-08-05T07:49:22.859Z,25.86
2022-08-05T07:50:28.934Z,25.86
2022-08-05T07:51:23.629Z,25.92
2022-08-05T07:52:23.900Z,25.98
2022-08-05T07:53:22.778Z,26.02
2022-08-05T07:54:23.232Z,26.01
2022-08-05T07:56:04.905Z,25.89
2022-08-05T07:57:00.887Z,25.78
2022-08-05T07:57:56.339Z,25.72
2022-08-05T07:58:58.996Z,25.69
2022-08-05T07:59:23.373Z,25.72
2022-08-05T08:00:22.702Z,25.79
2022-08-05T08:01:22.732Z,25.86
2022-08-05T08:02:22.694Z,25.92
2022-08-05T08:03:22.672Z,25.98
2022-08-05T08:04:34.347Z,25.99
2022-08-05T08:05:22.659Z,25.96
2022-08-05T08:06:22.655Z,25.89
2022-08-05T08:07:23.007Z,25.78
2022-08-05T08:08:22.597Z,25.70
2022-08-05T08:09:22.928Z,25.66
2022-08-05T08:10:22.561Z,25.65
2022-08-05T08:11:27.754Z,25.63
2022-08-05T08:12:35.210Z,25.60
2022-08-05T08:13:28.825Z,25.56
2022-08-05T08:14:22.525Z,25.52
2022-08-05T08:16:35.948Z,25.47
2022-08-05T08:16:55.904Z,25.40
2022-08-05T08:17:22.918Z,25.32
2022-08-05T08:18:22.465Z,25.25
2022-08-05T08:20:22.066Z,25.21
2022-08-05T08:21:02.343Z,25.23
2022-08-05T08:21:22.478Z,25.27
2022-08-05T08:22:22.454Z,25.33
2022-08-05T08:24:03.591Z,25.41
2022-08-05T08:24:22.414Z,25.50
2022-08-05T08:25:26.519Z,25.57
2022-08-05T08:26:26.895Z,25.63
2022-08-05T08:27:22.661Z,25.72
2022-08-05T08:28:36.631Z,25.80
2022-08-05T08:30:04.280Z,25.87
2022-08-05T08:30:32.287Z,25.89
2022-08-05T08:31:22.308Z,25.88
2022-08-05T08:32:27.973Z,25.86
2022-08-05T08:33:22.254Z,25.84
2022-08-05T08:34:30.256Z,25.82
2022-08-05T08:35:22.246Z,25.76
2022-08-05T08:36:37.584Z,25.66
2022-08-05T08:37:27.842Z,25.54
2022-08-05T08:38:35.486Z,25.43
2022-08-05T08:39:22.228Z,25.34
2022-08-05T08:40:22.184Z,25.26
2022-08-05T08:41:22.163Z,25.17
2022-08-05T08:42:33.801Z,25.09
2022-08-05T08:44:57.933Z,25.03
2022-08-05T08:45:29.623Z,24.98
2022-08-05T08:45:35.832Z,24.94
2022-08-05T08:46:35.856Z,24.91
2022-08-05T08:48:06.775Z,24.89
2022-08-05T08:48:42.883Z,24.88
2022-08-05T08:50:13.106Z,24.88
2022-08-05T08:51:04.108Z,24.88
2022-08-05T08:52:06.144Z,24.85
2022-08-05T08:52:35.758Z,24.80
2022-08-05T08:53:35.709Z,24.72
2022-08-05T08:54:36.455Z,24.62
2022-08-05T08:56:04.899Z,24.50
2022-08-05T08:56:35.696Z,24.37
2022-08-05T08:57:42.355Z,24.22
2022-08-05T08:58:43.524Z,24.06
2022-08-05T08:59:35.673Z,23.93
2022-08-05T09:00:35.855Z,23.83
2022-08-05T09:01:35.639Z,23.76
2022-08-05T09:02:35.712Z,23.71
2022-08-05T09:03:40.361Z,23.67
2022-08-05T09:04:35.583Z,23.66
2022-08-05T09:05:38.847Z,23.66
2022-08-05T09:06:36.327Z,23.67
2022-08-05T09:07:39.878Z,23.69
2022-08-05T09:08:35.547Z,23.71
2022-08-05T09:09:35.886Z,23.73
2022-08-05T09:10:35.519Z,23.75
2022-08-05T09:11:51.414Z,23.77
2022-08-05T09:12:35.771Z,23.80
2022-08-05T09:14:09.232Z,23.83
2022-08-05T09:15:04.788Z,23.86
2022-08-05T09:15:36.954Z,23.90
2022-08-05T09:16:35.420Z,23.94
2022-08-05T09:17:42.498Z,23.98
2022-08-05T09:18:37.955Z,24.05
2022-08-05T09:19:36.638Z,24.12
2022-08-05T09:20:37.468Z,24.18
2022-08-05T09:22:21.939Z,24.23
2022-08-05T09:22:35.923Z,24.29
2022-08-05T09:23:43.308Z,24.33
2022-08-05T09:24:35.342Z,24.35
2022-08-05T09:26:02.468Z,24.36
2022-08-05T09:26:35.312Z,24.35
2022-08-05T09:28:04.384Z,24.34
2022-08-05T09:28:35.331Z,24.33
2022-08-05T09:29:35.271Z,24.33
2022-08-05T09:30:35.285Z,24.33
2022-08-05T09:32:39.967Z,24.33
2022-08-05T09:32:47.603Z,24.33
2022-08-05T09:33:35.452Z,24.36
2022-08-05T09:34:35.209Z,24.39
2022-08-05T09:35:35.194Z,24.43
2022-08-05T09:36:35.179Z,24.48
2022-08-05T09:38:17.510Z,24.51
2022-08-05T09:38:35.146Z,24.52
2022-08-05T09:39:44.694Z,24.49
2022-08-05T09:40:35.111Z,24.46
2022-08-05T09:41:39.107Z,24.45
2022-08-05T09:42:35.402Z,24.45
2022-08-05T09:43:40.834Z,24.43
2022-08-05T09:44:35.172Z,24.40
2022-08-05T09:46:06.696Z,24.35
2022-08-05T09:46:35.234Z,24.29
2022-08-05T09:47:55.276Z,24.26
2022-08-05T09:48:35.029Z,24.23
2022-08-05T09:49:40.473Z,24.17
2022-08-05T09:50:38.822Z,24.10
2022-08-05T09:51:36.619Z,24.03
2022-08-05T09:52:35.015Z,23.96
2022-08-05T09:53:54.313Z,23.90
2022-08-05T09:54:34.949Z,23.85
2022-08-05T09:55:58.238Z,23.80
2022-08-05T09:56:34.931Z,23.75
2022-08-05T09:57:35.337Z,23.71
2022-08-05T09:58:34.890Z,23.69
2022-08-05T09:59:37.164Z,23.66
2022-08-05T10:00:34.890Z,23.63
2022-08-05T10:01:34.839Z,23.60
2022-08-05T10:02:34.869Z,23.58
2022-08-05T10:03:56.935Z,23.56
2022-08-05T10:04:34.947Z,23.54
2022-08-05T10:05:34.786Z,23.51
2022-08-05T10:06:34.790Z,23.48
2022-08-05T10:08:34.512Z,23.45
2022-08-05T10:08:42.396Z,23.44
2022-08-05T10:09:45.023Z,23.42
2022-08-05T10:10:34.737Z,23.40
2022-08-05T10:11:35.256Z,23.37
2022-08-05T10:12:35.280Z,23.34
2022-08-05T10:13:45.697Z,23.30
2022-08-05T10:14:34.691Z,23.26
2022-08-05T10:15:34.675Z,23.23
2022-08-05T10:16:41.751Z,23.20
2022-08-05T10:17:37.782Z,23.11
2022-08-05T10:18:34.625Z,22.92
2022-08-05T10:20:04.305Z,22.69
2022-08-05T10:20:34.587Z,22.48
2022-08-05T10:21:35.369Z,22.32
2022-08-05T10:22:35.087Z,22.24
2022-08-05T10:23:59.799Z,22.22
2022-08-05T10:24:34.546Z,22.25
2022-08-05T10:25:34.521Z,22.33
2022-08-05T10:26:34.514Z,22.43
2022-08-05T10:28:13.434Z,22.55
2022-08-05T10:28:34.542Z,22.68
2022-08-05T10:30:41.212Z,22.84
2022-08-05T10:33:02.007Z,22.98
2022-08-05T10:33:09.355Z,23.17
2022-08-05T10:34:07.042Z,23.34
2022-08-05T10:35:05.231Z,23.43
2022-08-05T10:36:05.124Z,23.45
2022-08-05T10:37:05.098Z,23.43
2022-08-05T10:38:05.097Z,23.42
2022-08-05T10:39:11.737Z,23.43
2022-08-05T10:40:18.189Z,23.46
2022-08-05T10:41:05.142Z,23.50
2022-08-05T10:42:05.043Z,23.53
2022-08-05T10:43:05.022Z,23.56
2022-08-05T10:44:05.031Z,23.59
2022-08-05T10:45:21.291Z,23.59
2022-08-05T10:46:06.756Z,23.58
2022-08-05T10:47:04.970Z,23.55
2022-08-05T10:48:31.478Z,23.53
2022-08-05T10:49:08.050Z,23.52
2022-08-05T10:50:20.493Z,23.52
2022-08-05T10:51:04.931Z,23.52
2022-08-05T10:52:05.283Z,23.51
2022-08-05T10:53:04.909Z,23.48
2022-08-05T10:54:05.966Z,23.45
2022-08-05T10:55:04.896Z,23.46
2022-08-05T10:56:21.151Z,23.48
2022-08-05T10:57:04.844Z,23.48
2022-08-05T10:58:04.826Z,23.45
2022-08-05T10:59:12.282Z,23.39
2022-08-05T11:00:09.095Z,23.32
2022-08-05T11:01:04.777Z,23.23
2022-08-05T11:02:05.597Z,23.12
2022-08-05T11:03:23.831Z,23.02
2022-08-05T11:04:04.763Z,22.94
2022-08-05T11:05:04.738Z,22.86
2022-08-05T11:06:04.766Z,22.78
2022-08-05T11:07:04.712Z,22.68
2022-08-05T11:08:21.657Z,22.58
2022-08-05T11:09:04.699Z,22.47
2022-08-05T11:10:10.009Z,22.37
2022-08-05T11:11:14.549Z,22.29
2022-08-05T11:12:04.663Z,22.25
2022-08-05T11:13:04.618Z,22.25
2022-08-05T11:14:04.622Z,22.29
2022-08-05T11:15:19.857Z,22.35
2022-08-05T11:16:04.609Z,22.42
2022-08-05T11:17:14.232Z,22.55
2022-08-05T11:18:05.917Z,22.84
2022-08-05T11:20:11.015Z,23.28
2022-08-05T11:20:22.360Z,23.66
2022-08-05T11:21:06.504Z,23.85
2022-08-05T11:22:04.516Z,23.89
2022-08-05T11:23:09.007Z,23.87
2022-08-05T11:24:29.985Z,23.86
2022-08-05T11:26:03.589Z,23.93
2022-08-05T11:26:10.953Z,24.06
2022-08-05T11:27:04.450Z,24.25
2022-08-05T11:28:04.421Z,24.46
2022-08-05T11:29:12.053Z,24.66
2022-08-05T11:30:04.398Z,24.84
2022-08-05T11:31:06.455Z,25.09
2022-08-05T11:32:04.432Z,25.55
2022-08-05T11:33:04.380Z,26.12
2022-08-05T11:34:04.347Z,26.68
2022-08-05T11:35:04.380Z,27.22
2022-08-05T11:36:08.728Z,27.69
2022-08-05T11:37:55.121Z,28.06
2022-08-05T11:38:45.536Z,28.42
2022-08-05T11:39:04.391Z,28.53
2022-08-05T11:40:04.577Z,28.32
2022-08-05T11:41:35.555Z,28.08
2022-08-05T11:42:05.682Z,27.82
2022-08-05T11:43:04.278Z,27.47
2022-08-05T11:44:06.462Z,27.10
2022-08-05T11:45:05.320Z,26.77
2022-08-05T11:46:27.546Z,26.49
2022-08-05T11:47:10.440Z,26.24
2022-08-05T11:48:04.206Z,26.12
2022-08-05T11:49:04.177Z,26.15
2022-08-05T11:50:04.172Z,26.23
2022-08-05T11:51:04.182Z,26.37
2022-08-05T11:52:11.197Z,26.71
2022-08-05T11:53:04.143Z,27.17
2022-08-05T11:54:04.117Z,27.48
2022-08-05T11:55:07.564Z,27.51
2022-08-05T11:56:04.123Z,27.27
2022-08-05T11:57:07.703Z,26.92
2022-08-05T11:58:10.417Z,26.63
2022-08-05T11:59:04.076Z,26.48
2022-08-05T12:00:04.050Z,26.46
2022-08-05T12:01:04.604Z,26.50
2022-08-05T12:02:04.007Z,26.57
2022-08-05T12:03:04.079Z,26.66
2022-08-05T12:04:04.062Z,26.85
2022-08-05T12:05:07.662Z,27.06
2022-08-05T12:06:06.017Z,27.17
2022-08-05T12:07:03.949Z,27.27
2022-08-05T12:08:11.026Z,27.57
2022-08-05T12:09:03.969Z,27.99
2022-08-05T12:10:09.507Z,28.39
2022-08-05T12:11:05.799Z,28.72
2022-08-05T12:12:03.906Z,28.75
2022-08-05T12:13:03.873Z,28.72
2022-08-05T12:14:04.058Z,28.90
2022-08-05T12:15:03.924Z,29.00
2022-08-05T12:16:03.881Z,28.92
2022-08-05T12:17:03.882Z,28.75
2022-08-05T12:18:10.491Z,28.67
2022-08-05T12:19:03.847Z,28.77
2022-08-05T12:20:16.846Z,28.81
2022-08-05T12:21:03.832Z,28.90
2022-08-05T12:22:03.805Z,29.23
2022-08-05T12:23:03.810Z,29.65
2022-08-05T12:24:04.781Z,29.95
2022-08-05T12:25:03.785Z,29.92
2022-08-05T12:26:03.734Z,29.66
2022-08-05T12:27:09.693Z,29.55
2022-08-05T12:28:03.714Z,29.68
2022-08-05T12:29:03.733Z,29.99
2022-08-05T12:30:03.719Z,30.29
2022-08-05T12:31:03.655Z,30.39
2022-08-05T12:32:04.528Z,30.60
2022-08-05T12:33:07.330Z,30.84
2022-08-05T12:34:03.666Z,30.82
2022-08-05T12:35:04.149Z,30.52
2022-08-05T12:36:03.676Z,30.18
2022-08-05T12:37:03.652Z,29.99
2022-08-05T12:38:03.573Z,29.80
2022-08-05T12:39:03.615Z,29.56
2022-08-05T12:40:10.797Z,29.39
2022-08-05T12:41:03.584Z,29.41
2022-08-05T12:42:03.561Z,29.67
2022-08-05T12:43:03.554Z,30.09
2022-08-05T12:44:03.590Z,30.60
2022-08-05T12:45:03.540Z,31.09
2022-08-05T12:46:03.525Z,31.53
2022-08-05T12:47:03.681Z,31.72
2022-08-05T12:48:27.632Z,31.76
2022-08-05T12:49:13.210Z,31.90
2022-08-05T12:50:07.215Z,32.01
2022-08-05T12:51:03.457Z,32.04
2022-08-05T12:52:12.922Z,32.19
2022-08-05T12:53:03.421Z,32.41
2022-08-05T12:54:03.552Z,32.46
2022-08-05T12:55:03.424Z,32.37
2022-08-05T12:56:03.375Z,32.19